Time;durP1;ratioP1;P1;durP2;ratioP2;P2;SDS_P1;SDS_P2;PMS_P1;PMS_P2;Temp;Humidity;BMP_temperature;BMP_pressure;BME280_temperature;BME280_humidity;BME280_pressure;Samples;Min_cycle;Max_cycle;Signal;HPM_P1;HPM_P2
2023/04/15 00:00:41;;;;;;;7.65;3.60;;;;;;;11.13;nan;-24127.78;4995917;28;20165;-66
2023/04/15 00:03:07;;;;;;;4.68;3.17;;;;;;;11.17;nan;-24128.91;4995535;28;20543;-68
2023/04/15 00:05:33;;;;;;;7.18;3.65;;;;;;;10.87;nan;-24120.72;4995665;28;20172;-66
2023/04/15 00:08:00;;;;;;;5.30;3.13;;;;;;;10.88;nan;-24120.88;4995711;28;20169;-67
2023/04/15 00:10:26;;;;;;;6.68;3.53;;;;;;;11.26;nan;-24131.59;4995612;28;20690;-67
2023/04/15 00:12:51;;;;;;;5.18;3.13;;;;;;;10.92;nan;-24122.00;4994341;28;20232;-67
2023/04/15 00:15:18;;;;;;;5.10;3.30;;;;;;;10.77;nan;-24117.91;4995137;28;20204;-67
2023/04/15 00:17:43;;;;;;;6.40;3.58;;;;;;;10.41;nan;-24107.88;4995096;28;20169;-67
2023/04/15 00:20:09;;;;;;;5.78;3.25;;;;;;;10.84;nan;-24119.75;4994708;28;20180;-67
2023/04/15 00:22:35;;;;;;;5.07;3.30;;;;;;;10.93;nan;-24122.41;4995081;28;20196;-68
2023/04/15 00:25:00;;;;;;;5.45;3.15;;;;;;;10.65;nan;-24114.53;4995060;28;20153;-67
2023/04/15 00:27:26;;;;;;;5.03;3.53;;;;;;;11.02;nan;-24124.97;4994891;28;20179;-69
2023/04/15 00:29:51;;;;;;;7.10;3.80;;;;;;;11.06;nan;-24125.94;4994164;28;20169;-67
2023/04/15 00:32:17;;;;;;;6.20;4.05;;;;;;;11.16;nan;-24128.75;4994522;28;20165;-67
2023/04/15 00:34:42;;;;;;;6.95;3.10;;;;;;;11.09;nan;-24126.78;4995235;28;20169;-68
2023/04/15 00:37:09;;;;;;;5.20;3.70;;;;;;;10.62;nan;-24113.81;4994795;28;20172;-69
2023/04/15 00:39:34;;;;;;;5.25;3.20;;;;;;;11.00;nan;-24124.25;4995656;28;20198;-68
2023/04/15 00:42:01;;;;;;;5.72;3.67;;;;;;;10.63;nan;-24114.09;4994795;28;20256;-67
2023/04/15 00:44:26;;;;;;;8.50;3.58;;;;;;;10.69;nan;-24115.50;4994675;28;20614;-68
2023/04/15 00:46:52;;;;;;;7.47;3.78;;;;;;;11.00;nan;-24124.41;4995102;28;20216;-68
2023/04/15 00:49:18;;;;;;;7.35;3.58;;;;;;;10.75;nan;-24117.19;4994875;28;20269;-66
2023/04/15 00:51:43;;;;;;;7.95;3.97;;;;;;;11.01;nan;-24124.53;4994843;28;20620;-68
2023/04/15 00:54:10;;;;;;;5.47;3.05;;;;;;;10.57;nan;-24112.41;4995317;28;20258;-68
2023/04/15 00:56:39;;;;;;;6.88;3.33;;;;;;;10.70;nan;-24115.78;4999698;28;20184;-67
2023/04/15 00:59:05;;;;;;;6.43;3.67;;;;;;;10.74;nan;-24117.06;4994947;28;20177;-66
2023/04/15 01:01:34;;;;;;;7.35;3.13;;;;;;;10.92;nan;-24122.00;4994752;28;20606;-67
2023/04/15 01:03:59;;;;;;;6.75;3.40;;;;;;;10.75;nan;-24117.34;4994114;28;20260;-67
2023/04/15 01:06:26;;;;;;;5.68;3.45;;;;;;;10.77;nan;-24117.78;4994518;28;20179;-66
2023/04/15 01:08:53;;;;;;;6.35;3.30;;;;;;;10.59;nan;-24112.81;4994891;28;20200;-68
2023/04/15 01:11:18;;;;;;;4.63;3.03;;;;;;;10.10;nan;-24099.13;4994479;28;20178;-67
2023/04/15 01:13:45;;;;;;;4.30;3.20;;;;;;;10.04;nan;-24097.59;4994258;28;20208;-66
2023/04/15 01:16:11;;;;;;;4.47;3.60;;;;;;;10.26;nan;-24103.53;4994128;28;20195;-68
2023/04/15 01:18:37;;;;;;;8.17;3.60;;;;;;;10.18;nan;-24101.41;4992806;28;20715;-67
2023/04/15 01:21:04;;;;;;;4.83;2.90;;;;;;;9.97;nan;-24095.47;4994566;28;20260;-67
2023/04/15 01:23:31;;;;;;;3.80;2.80;;;;;;;10.02;nan;-24096.88;4994454;28;20260;-66
2023/04/15 01:25:58;;;;;;;5.20;2.97;;;;;;;9.98;nan;-24095.75;4994076;28;20169;-66
2023/04/15 01:28:24;;;;;;;4.63;2.93;;;;;;;9.99;nan;-24096.16;4993861;28;20205;-67
2023/04/15 01:30:50;;;;;;;4.17;3.17;;;;;;;9.75;nan;-24089.38;4993924;28;20204;-67
2023/04/15 01:33:15;;;;;;;9.07;3.20;;;;;;;9.82;nan;-24091.22;4993581;28;20197;-67
2023/04/15 01:35:43;;;;;;;4.03;2.90;;;;;;;10.05;nan;-24097.72;4992909;28;20258;-68
2023/04/15 01:38:10;;;;;;;5.17;3.00;;;;;;;9.91;nan;-24093.78;4994235;28;20181;-67
2023/04/15 01:40:35;;;;;;;6.20;3.17;;;;;;;9.97;nan;-24095.47;4992954;28;20614;-67
2023/04/15 01:43:01;;;;;;;4.93;3.40;;;;;;;9.79;nan;-24090.38;4993801;28;20213;-67
2023/04/15 01:45:27;;;;;;;5.90;2.80;;;;;;;9.54;nan;-24083.47;4993829;28;20177;-66
2023/04/15 01:47:53;;;;;;;4.87;2.90;;;;;;;9.71;nan;-24088.25;4993536;28;20232;-66
2023/04/15 01:50:19;;;;;;;3.77;2.87;;;;;;;9.67;nan;-24087.28;4994292;28;20168;-68
2023/04/15 01:52:45;;;;;;;4.83;2.60;;;;;;;9.69;nan;-24087.84;4993745;28;20201;-67
2023/04/15 01:55:11;;;;;;;4.17;2.67;;;;;;;9.80;nan;-24090.66;4993688;28;20180;-66
2023/04/15 01:57:36;;;;;;;4.47;2.40;;;;;;;9.46;nan;-24081.19;4995936;28;20576;-68
2023/04/15 02:00:02;;;;;;;4.17;3.00;;;;;;;9.25;nan;-24075.41;4993851;28;20183;-68
2023/04/15 02:02:28;;;;;;;3.23;2.40;;;;;;;9.17;nan;-24073.13;4993165;28;20282;-68
2023/04/15 02:04:53;;;;;;;3.77;2.60;;;;;;;9.40;nan;-24079.63;4993717;28;20523;-66
2023/04/15 02:07:19;;;;;;;3.97;2.80;;;;;;;9.38;nan;-24079.06;4993762;28;20172;-66
2023/04/15 02:09:45;;;;;;;5.77;2.63;;;;;;;9.55;nan;-24083.75;4993426;28;20183;-67
2023/04/15 02:12:10;;;;;;;3.30;2.47;;;;;;;9.23;nan;-24074.84;4993548;28;20176;-69
2023/04/15 02:14:36;;;;;;;3.67;2.40;;;;;;;9.13;nan;-24072.16;4993002;28;20240;-68
2023/04/15 02:17:06;;;;;;;4.40;2.53;;;;;;;9.59;nan;-24085.00;4992710;28;20177;-69
2023/04/15 02:19:32;;;;;;;4.63;2.70;;;;;;;9.26;nan;-24075.69;4993114;28;20243;-67
2023/04/15 02:21:58;;;;;;;3.10;2.10;;;;;;;9.37;nan;-24078.78;5025263;28;20614;-68
2023/04/15 02:24:24;;;;;;;2.53;2.33;;;;;;;9.63;nan;-24086.13;4993104;28;20173;-67
2023/04/15 02:26:49;;;;;;;6.93;2.67;;;;;;;9.40;nan;-24079.63;4993178;28;20636;-66
2023/04/15 02:29:15;;;;;;;3.90;2.80;;;;;;;9.72;nan;-24088.69;4993022;28;20204;-68
2023/04/15 02:31:41;;;;;;;3.10;2.27;;;;;;;9.50;nan;-24082.31;4992533;28;20727;-66
2023/04/15 02:34:07;;;;;;;3.53;2.33;;;;;;;9.36;nan;-24078.38;4993223;28;20208;-66
2023/04/15 02:36:33;;;;;;;4.20;2.63;;;;;;;9.09;nan;-24071.03;4992896;28;20607;-67
2023/04/15 02:38:59;;;;;;;2.57;2.10;;;;;;;8.61;nan;-24057.56;4992867;28;20599;-67
2023/04/15 02:41:26;;;;;;;3.47;2.33;;;;;;;8.69;nan;-24059.84;4993468;28;20180;-66
2023/04/15 02:43:52;;;;;;;2.87;2.20;;;;;;;9.21;nan;-24074.25;4992844;28;20207;-68
2023/04/15 02:46:17;;;;;;;2.43;2.23;;;;;;;8.95;nan;-24066.91;4992478;28;20648;-67
2023/04/15 02:48:43;;;;;;;5.10;2.83;;;;;;;9.30;nan;-24076.81;4993227;28;20216;-67
2023/04/15 02:51:18;;;;;;;3.90;2.20;;;;;;;8.88;nan;-24065.22;4992880;28;20635;-67
2023/04/15 02:53:44;;;;;;;4.03;2.10;;;;;;;9.28;nan;-24076.25;4992753;28;20200;-66
2023/04/15 02:56:11;;;;;;;2.50;2.30;;;;;;;9.51;nan;-24082.59;4992747;28;20193;-68
2023/04/15 02:58:38;;;;;;;2.63;1.93;;;;;;;9.24;nan;-24075.25;4997457;28;20239;-66
2023/04/15 03:01:03;;;;;;;2.30;2.03;;;;;;;9.19;nan;-24073.84;4987542;28;20180;-67
2023/04/15 03:03:29;;;;;;;2.40;2.07;;;;;;;9.02;nan;-24068.91;4979102;28;20177;-68
2023/04/15 03:05:55;;;;;;;3.00;2.10;;;;;;;9.02;nan;-24068.91;4980384;28;20196;-69
2023/04/15 03:08:20;;;;;;;2.47;2.20;;;;;;;8.42;nan;-24052.34;4987569;28;20636;-68
2023/04/15 03:10:46;;;;;;;5.00;2.17;;;;;;;8.09;nan;-24042.84;4992624;28;20176;-68
2023/04/15 03:13:12;;;;;;;2.13;1.93;;;;;;;8.14;nan;-24044.41;4987813;28;20209;-66
2023/04/15 03:15:37;;;;;;;6.93;2.47;;;;;;;8.35;nan;-24050.38;4973353;28;20177;-67
2023/04/15 03:18:03;;;;;;;2.90;2.20;;;;;;;8.50;nan;-24054.31;4973267;28;20177;-66
2023/04/15 03:20:28;;;;;;;2.77;2.13;;;;;;;8.25;nan;-24047.38;4973076;28;20677;-67
2023/04/15 03:22:54;;;;;;;3.80;2.50;;;;;;;8.31;nan;-24049.22;4973155;28;20185;-68
2023/04/15 03:25:19;;;;;;;4.90;2.77;;;;;;;8.75;nan;-24061.41;4972931;28;20607;-67
2023/04/15 03:27:44;;;;;;;4.60;2.87;;;;;;;8.34;nan;-24050.06;4973657;28;20653;-67
2023/04/15 03:30:11;;;;;;;2.77;2.20;;;;;;;8.51;nan;-24054.75;4984500;28;20188;-68
2023/04/15 03:32:36;;;;;;;5.10;2.67;;;;;;;8.74;nan;-24061.25;4995976;28;20609;-66
2023/04/15 03:35:02;;;;;;;3.80;2.53;;;;;;;8.42;nan;-24052.34;4996007;28;20184;-68
2023/04/15 03:37:27;;;;;;;2.63;2.20;;;;;;;8.75;nan;-24061.41;4995573;28;20188;-65
2023/04/15 03:39:53;;;;;;;2.40;2.10;;;;;;;8.61;nan;-24057.56;4995711;28;20177;-67
2023/04/15 03:42:18;;;;;;;2.80;2.13;;;;;;;8.30;nan;-24048.94;4995700;28;20165;-72
2023/04/15 03:44:44;;;;;;;2.93;2.40;;;;;;;8.44;nan;-24052.78;4994400;28;20273;-68
2023/04/15 03:47:09;;;;;;;2.90;2.33;;;;;;;7.98;nan;-24040.03;4994123;28;20247;-67
2023/04/15 03:49:36;;;;;;;2.60;2.20;;;;;;;7.77;nan;-24034.06;4994601;28;20524;-68
2023/04/15 03:52:01;;;;;;;1.90;1.80;;;;;;;7.60;nan;-24029.25;4996245;28;20223;-67
2023/04/15 03:54:26;;;;;;;2.30;2.10;;;;;;;8.06;nan;-24042.00;4995821;28;20196;-67
2023/04/15 03:56:52;;;;;;;3.77;2.77;;;;;;;7.92;nan;-24038.31;4995557;28;20177;-67
2023/04/15 03:59:17;;;;;;;5.47;2.43;;;;;;;8.36;nan;-24050.66;5000579;28;20259;-68
2023/04/15 04:01:42;;;;;;;4.30;2.60;;;;;;;8.53;nan;-24055.16;4996501;28;20706;-67
2023/04/15 04:04:08;;;;;;;2.83;2.13;;;;;;;8.43;nan;-24052.47;4994906;28;20180;-67
2023/04/15 04:06:33;;;;;;;3.13;1.97;;;;;;;8.43;nan;-24052.47;4995683;28;20176;-68
2023/04/15 04:09:00;;;;;;;2.63;2.00;;;;;;;8.50;nan;-24054.47;4995472;28;20569;-68
2023/04/15 04:11:27;;;;;;;3.30;1.97;;;;;;;8.62;nan;-24057.72;4995674;28;20164;-67
2023/04/15 04:13:52;;;;;;;2.67;1.97;;;;;;;8.67;nan;-24059.28;4995866;28;20224;-68
2023/04/15 04:16:17;;;;;;;6.27;2.10;;;;;;;8.60;nan;-24057.16;4995800;28;20175;-67
2023/04/15 04:18:43;;;;;;;3.07;1.83;;;;;;;8.40;nan;-24051.78;4995662;28;20173;-68
2023/04/15 04:21:08;;;;;;;2.63;2.30;;;;;;;8.24;nan;-24047.25;4995242;28;20303;-67
2023/04/15 04:23:34;;;;;;;2.87;2.20;;;;;;;8.15;nan;-24044.69;4995290;28;20691;-67
2023/04/15 04:25:59;;;;;;;2.20;1.97;;;;;;;8.34;nan;-24050.06;4995216;28;20648;-67
2023/04/15 04:28:25;;;;;;;9.33;2.17;;;;;;;8.30;nan;-24048.81;4995746;28;20173;-66
2023/04/15 04:30:51;;;;;;;1.90;1.60;;;;;;;8.62;nan;-24057.72;4995710;28;20533;-67
2023/04/15 04:33:16;;;;;;;3.23;2.10;;;;;;;9.57;nan;-24084.44;4995344;28;20192;-67
2023/04/15 04:35:42;;;;;;;2.60;1.93;;;;;;;10.07;nan;-24098.28;4995301;28;20632;-68
2023/04/15 04:38:07;;;;;;;2.83;2.13;;;;;;;10.72;nan;-24116.34;4995149;28;20184;-69
2023/04/15 04:40:33;;;;;;;2.13;1.90;;;;;;;10.65;nan;-24114.53;4994105;28;20183;-69
2023/04/15 04:42:59;;;;;;;2.23;1.80;;;;;;;10.68;nan;-24115.22;4995159;28;20161;-66
2023/04/15 04:45:24;;;;;;;2.77;2.10;;;;;;;10.56;nan;-24112.13;4995035;28;20176;-66
2023/04/15 04:47:49;;;;;;;2.20;1.97;;;;;;;10.31;nan;-24105.06;4994785;28;20219;-66
2023/04/15 04:50:15;;;;;;;2.47;2.27;;;;;;;9.93;nan;-24094.34;4993852;28;20184;-67
2023/04/15 04:52:41;;;;;;;9.80;2.30;;;;;;;9.78;nan;-24090.25;4994889;28;20207;-69
2023/04/15 04:55:07;;;;;;;2.87;2.03;;;;;;;9.53;nan;-24083.16;4994721;28;20197;-67
2023/04/15 04:57:34;;;;;;;2.23;1.80;;;;;;;9.86;nan;-24092.50;4994682;28;20180;-68
2023/04/15 05:00:00;;;;;;;2.80;2.40;;;;;;;10.20;nan;-24101.97;4999571;28;20636;-69
2023/04/15 05:02:26;;;;;;;3.70;2.23;;;;;;;9.85;nan;-24092.06;4994449;28;20173;-68
2023/04/15 05:04:53;;;;;;;2.93;1.90;;;;;;;10.43;nan;-24108.31;4994393;28;20192;-67
2023/04/15 05:07:19;;;;;;;3.07;2.20;;;;;;;10.27;nan;-24103.78;4994678;28;20711;-66
2023/04/15 05:09:45;;;;;;;3.87;2.10;;;;;;;10.78;nan;-24118.03;4994436;28;20696;-67
2023/04/15 05:12:13;;;;;;;5.18;1.80;;;;;;;10.29;nan;-24104.50;4994427;28;20244;-69
2023/04/15 05:14:40;;;;;;;3.15;2.13;;;;;;;10.62;nan;-24113.81;4993989;28;20248;-67
2023/04/15 05:17:06;;;;;;;2.47;1.98;;;;;;;10.91;nan;-24121.72;4994418;28;20181;-66
2023/04/15 05:19:31;;;;;;;2.05;1.85;;;;;;;11.34;nan;-24133.69;4994991;28;20230;-68
2023/04/15 05:21:57;;;;;;;2.65;2.20;;;;;;;11.03;nan;-24125.09;4994182;28;20608;-68
2023/04/15 05:24:22;;;;;;;2.95;2.53;;;;;;;11.14;nan;-24128.19;4994040;28;20187;-67
2023/04/15 05:26:47;;;;;;;2.13;1.88;;;;;;;11.12;nan;-24127.63;4994030;28;20172;-68
2023/04/15 05:29:13;;;;;;;2.92;2.13;;;;;;;11.21;nan;-24130.19;4994137;28;20292;-67
2023/04/15 05:31:38;;;;;;;3.58;2.25;;;;;;;11.10;nan;-24126.94;4993920;28;20644;-68
2023/04/15 05:34:04;;;;;;;3.70;2.20;;;;;;;11.24;nan;-24130.88;4992928;28;20204;-67
2023/04/15 05:36:30;;;;;;;5.15;2.40;;;;;;;11.33;nan;-24133.41;4993917;28;20552;-68
2023/04/15 05:38:55;;;;;;;2.40;1.80;;;;;;;11.46;nan;-24137.22;4992214;28;20567;-67
2023/04/15 05:41:21;;;;;;;2.40;1.77;;;;;;;11.75;nan;-24145.25;4994202;28;20173;-67
2023/04/15 05:43:46;;;;;;;4.00;2.13;;;;;;;11.50;nan;-24138.34;4993802;28;20210;-68
2023/04/15 05:46:12;;;;;;;3.10;1.92;;;;;;;11.95;nan;-24150.75;4993631;28;20177;-68
2023/04/15 05:48:37;;;;;;;4.15;2.50;;;;;;;11.71;nan;-24143.97;4993977;28;20687;-69
2023/04/15 05:51:03;;;;;;;2.13;1.92;;;;;;;12.16;nan;-24156.66;4993183;28;20181;-66
2023/04/15 05:53:28;;;;;;;2.25;2.03;;;;;;;12.08;nan;-24154.41;4993001;28;20216;-66
2023/04/15 05:55:53;;;;;;;2.70;2.20;;;;;;;12.50;nan;-24166.09;4993280;28;20726;-69
2023/04/15 05:58:19;;;;;;;2.15;1.83;;;;;;;12.61;nan;-24169.03;4993232;28;20183;-68
2023/04/15 06:00:45;;;;;;;4.00;1.90;;;;;;;13.02;nan;-24180.44;4998484;28;20228;-66
2023/04/15 06:03:10;;;;;;;2.33;1.73;;;;;;;12.83;nan;-24175.38;4993718;28;20263;-67
2023/04/15 06:05:36;;;;;;;2.40;1.83;;;;;;;12.88;nan;-24176.63;4993286;28;20558;-67
2023/04/15 06:08:01;;;;;;;2.38;1.90;;;;;;;13.17;nan;-24184.78;4993119;28;20550;-67
2023/04/15 06:10:26;;;;;;;3.22;1.90;;;;;;;13.09;nan;-24182.41;4991639;28;20193;-67
2023/04/15 06:12:52;;;;;;;2.70;1.88;;;;;;;12.99;nan;-24179.59;4993434;28;20208;-68
2023/04/15 06:15:18;;;;;;;2.30;1.70;;;;;;;12.86;nan;-24176.06;4993461;28;20183;-66
2023/04/15 06:17:43;;;;;;;1.85;1.70;;;;;;;13.01;nan;-24180.16;4993395;28;20173;-69
2023/04/15 06:20:10;;;;;;;3.17;1.85;;;;;;;13.40;nan;-24191.13;4993164;28;20161;-66
2023/04/15 06:22:36;;;;;;;2.95;2.08;;;;;;;13.56;nan;-24195.59;4992613;28;20644;-66
2023/04/15 06:25:02;;;;;;;2.03;1.65;;;;;;;13.93;nan;-24205.84;4992940;28;20177;-66
2023/04/15 06:27:27;;;;;;;2.00;1.80;;;;;;;14.12;nan;-24211.19;4993427;28;20165;-67
2023/04/15 06:29:53;;;;;;;2.28;1.90;;;;;;;14.21;nan;-24213.44;4993293;28;20238;-65
2023/04/15 06:32:18;;;;;;;6.90;1.85;;;;;;;14.30;nan;-24216.09;4992926;28;20172;-68
2023/04/15 06:34:43;;;;;;;3.40;1.80;;;;;;;14.64;nan;-24225.50;4992793;28;20247;-66
2023/04/15 06:37:14;;;;;;;1.98;1.77;;;;;;;14.53;nan;-24222.41;4992961;28;20717;-69
2023/04/15 06:39:39;;;;;;;3.05;2.13;;;;;;;14.65;nan;-24225.78;4993104;28;20223;-66
2023/04/15 06:42:05;;;;;;;3.05;2.10;;;;;;;15.00;nan;-24235.44;4992712;28;20177;-69
2023/04/15 06:44:31;;;;;;;2.88;2.05;;;;;;;14.75;nan;-24228.44;4992775;28;20177;-67
2023/04/15 06:46:56;;;;;;;3.95;2.40;;;;;;;15.19;nan;-24240.78;4991388;28;20606;-66
2023/04/15 06:49:21;;;;;;;4.72;2.60;;;;;;;14.92;nan;-24233.34;4992254;28;20177;-67
2023/04/15 06:51:47;;;;;;;5.13;2.60;;;;;;;14.73;nan;-24228.03;4992049;28;20598;-67
2023/04/15 06:54:12;;;;;;;3.38;2.25;;;;;;;14.89;nan;-24232.50;4992183;28;20609;-69
2023/04/15 06:56:38;;;;;;;4.82;2.45;;;;;;;14.65;nan;-24225.78;4992542;28;20203;-67
2023/04/15 06:59:03;;;;;;;3.63;2.75;;;;;;;14.76;nan;-24228.84;4992325;28;20177;-69
2023/04/15 07:01:29;;;;;;;4.22;2.53;;;;;;;14.85;nan;-24231.25;4996609;28;20235;-67
2023/04/15 07:03:54;;;;;;;3.85;2.47;;;;;;;14.99;nan;-24235.31;4992036;28;20176;-68
2023/04/15 07:06:20;;;;;;;5.45;2.70;;;;;;;14.82;nan;-24230.41;4992396;28;20259;-67
2023/04/15 07:08:46;;;;;;;5.07;3.25;;;;;;;14.57;nan;-24223.53;4992415;28;20667;-67
2023/04/15 07:11:12;;;;;;;6.53;3.22;;;;;;;14.96;nan;-24234.31;4992605;28;20197;-66
2023/04/15 07:13:38;;;;;;;13.05;3.40;;;;;;;15.24;nan;-24242.03;4992375;28;20315;-69
2023/04/15 07:16:04;;;;;;;5.22;3.40;;;;;;;15.24;nan;-24242.03;4991669;28;20623;-66
2023/04/15 07:18:29;;;;;;;6.43;3.60;;;;;;;15.58;nan;-24251.41;4992646;28;20177;-67
2023/04/15 07:20:55;;;;;;;7.47;3.42;;;;;;;15.60;nan;-24251.97;4992272;28;20180;-67
2023/04/15 07:23:20;;;;;;;6.70;3.13;;;;;;;15.27;nan;-24242.88;4992143;28;20173;-68
2023/04/15 07:25:46;;;;;;;6.80;3.63;;;;;;;15.79;nan;-24257.44;4992638;28;20563;-68
2023/04/15 07:28:11;;;;;;;5.13;2.92;;;;;;;15.98;nan;-24262.47;4992134;28;20636;-67
2023/04/15 07:30:37;;;;;;;8.30;3.00;;;;;;;15.79;nan;-24257.44;4992269;28;20625;-67
2023/04/15 07:33:02;;;;;;;4.47;2.90;;;;;;;16.32;nan;-24272.13;4992535;28;20683;-67
2023/04/15 07:35:28;;;;;;;7.03;3.40;;;;;;;16.45;nan;-24275.63;4992591;28;20184;-67
2023/04/15 07:37:53;;;;;;;4.70;2.58;;;;;;;16.63;nan;-24280.66;4992152;28;20161;-68
2023/04/15 07:40:19;;;;;;;4.78;3.13;;;;;;;16.84;nan;-24286.38;4992771;28;20196;-68
2023/04/15 07:42:44;;;;;;;4.75;3.15;;;;;;;16.27;nan;-24270.59;4992675;28;20165;-67
2023/04/15 07:45:11;;;;;;;6.57;3.28;;;;;;;16.52;nan;-24277.44;4992242;28;20200;-67
2023/04/15 07:47:37;;;;;;;5.57;2.92;;;;;;;16.50;nan;-24276.88;4991862;28;20601;-68
2023/04/15 07:50:02;;;;;;;4.70;2.85;;;;;;;16.85;nan;-24286.66;4991724;28;20177;-68
2023/04/15 07:52:28;;;;;;;2.97;2.33;;;;;;;16.98;nan;-24290.28;4990415;28;20595;-66
2023/04/15 07:54:53;;;;;;;3.20;2.30;;;;;;;17.01;nan;-24291.13;4992459;28;20185;-67
2023/04/15 07:57:18;;;;;;;3.15;2.35;;;;;;;16.82;nan;-24285.69;4991147;28;20831;-68
2023/04/15 07:59:44;;;;;;;3.28;2.40;;;;;;;17.30;nan;-24298.94;4996861;28;20173;-67
2023/04/15 08:02:10;;;;;;;3.50;2.25;;;;;;;17.28;nan;-24298.38;4993527;28;20248;-66
2023/04/15 08:04:36;;;;;;;2.92;2.40;;;;;;;17.15;nan;-24295.03;4992238;28;20180;-69
2023/04/15 08:07:02;;;;;;;4.43;2.42;;;;;;;17.39;nan;-24301.59;4991980;28;20534;-69
2023/04/15 08:09:28;;;;;;;3.10;2.15;;;;;;;17.37;nan;-24300.91;4991267;28;20173;-67
2023/04/15 08:11:54;;;;;;;3.83;2.15;;;;;;;17.16;nan;-24295.16;4992146;28;20611;-68
2023/04/15 08:14:19;;;;;;;3.83;2.13;;;;;;;17.52;nan;-24305.22;4992022;28;20299;-69
2023/04/15 08:16:45;;;;;;;2.92;2.08;;;;;;;17.58;nan;-24306.91;4994147;28;20231;-67
2023/04/15 08:19:10;;;;;;;2.72;2.10;;;;;;;17.80;nan;-24312.75;4995576;28;20172;-67
2023/04/15 08:21:36;;;;;;;3.25;2.33;;;;;;;17.38;nan;-24301.31;4994806;28;20176;-69
2023/04/15 08:24:02;;;;;;;4.20;2.65;;;;;;;17.51;nan;-24304.94;4995855;28;20181;-69
2023/04/15 08:26:27;;;;;;;4.60;2.65;;;;;;;17.57;nan;-24306.47;4995259;28;20620;-68
2023/04/15 08:28:52;;;;;;;4.35;2.70;;;;;;;17.78;nan;-24312.34;4994691;28;20272;-68
2023/04/15 08:31:18;;;;;;;3.78;2.42;;;;;;;17.91;nan;-24315.97;4995161;28;20180;-66
2023/04/15 08:33:45;;;;;;;4.35;2.20;;;;;;;18.15;nan;-24322.53;4974370;28;20247;-67
2023/04/15 08:36:11;;;;;;;2.70;2.05;;;;;;;17.54;nan;-24305.78;4994699;28;20791;-68
2023/04/15 08:38:36;;;;;;;5.45;2.50;;;;;;;17.36;nan;-24300.75;4995207;28;20204;-67
2023/04/15 08:41:09;;;;;;;3.25;2.38;;;;;;;17.42;nan;-24302.44;4995087;28;20192;-66
2023/04/15 08:43:42;;;;;;;3.35;2.13;;;;;;;17.22;nan;-24296.84;4995136;28;20165;-67
2023/04/15 08:46:08;;;;;;;3.15;2.10;;;;;;;17.21;nan;-24296.72;4995030;28;20231;-69
2023/04/15 08:48:37;;;;;;;4.80;2.22;;;;;;;17.40;nan;-24301.72;4994292;28;20699;-68
2023/04/15 08:51:03;;;;;;;4.82;2.13;;;;;;;17.63;nan;-24308.16;4994885;28;20260;-68
2023/04/15 08:53:29;;;;;;;2.60;1.90;;;;;;;18.31;nan;-24326.97;4994795;28;20287;-68
2023/04/15 08:55:56;;;;;;;2.70;2.10;;;;;;;18.58;nan;-24334.38;4993256;28;20192;-69
2023/04/15 08:58:23;;;;;;;2.90;2.13;;;;;;;18.68;nan;-24337.00;4995433;28;20177;-69
2023/04/15 09:00:48;;;;;;;6.20;2.28;;;;;;;18.95;nan;-24344.66;4999337;28;20184;-67
2023/04/15 09:03:16;;;;;;;3.58;2.00;;;;;;;18.81;nan;-24340.78;5009526;28;20177;-67
2023/04/15 09:05:42;;;;;;;3.38;2.40;;;;;;;19.47;nan;-24358.84;4994627;28;20169;-68
2023/04/15 09:08:07;;;;;;;2.72;2.13;;;;;;;19.97;nan;-24372.63;4994786;28;20187;-68
2023/04/15 09:10:33;;;;;;;3.00;1.85;;;;;;;19.66;nan;-24364.16;4994603;28;20700;-68
2023/04/15 09:12:58;;;;;;;2.97;1.70;;;;;;;19.52;nan;-24360.25;4994406;28;20200;-66
2023/04/15 09:15:26;;;;;;;5.10;1.95;;;;;;;19.63;nan;-24363.16;4994413;28;20696;-68
2023/04/15 09:17:52;;;;;;;3.47;2.17;;;;;;;19.95;nan;-24372.06;4994232;28;20200;-69
2023/04/15 09:20:17;;;;;;;2.60;1.80;;;;;;;20.12;nan;-24376.78;4994386;28;20172;-69
2023/04/15 09:22:45;;;;;;;2.33;1.73;;;;;;;20.22;nan;-24379.44;4994614;28;20180;-67
2023/04/15 09:25:23;;;;;;;2.90;2.10;;;;;;;20.47;nan;-24386.25;4993908;28;20172;-68
2023/04/15 09:27:49;;;;;;;3.55;2.28;;;;;;;20.47;nan;-24386.25;4994002;28;20190;-67
2023/04/15 09:30:15;;;;;;;3.97;2.20;;;;;;;20.48;nan;-24386.53;4994121;28;20169;-69
2023/04/15 09:32:52;;;;;;;6.32;2.20;;;;;;;20.75;nan;-24394.00;4992828;28;20181;-70
2023/04/15 09:35:18;;;;;;;3.67;2.00;;;;;;;20.78;nan;-24394.84;4994200;28;20260;-68
2023/04/15 09:37:43;;;;;;;3.53;2.08;;;;;;;20.06;nan;-24375.00;4993886;28;20260;-69
2023/04/15 09:40:09;;;;;;;2.63;1.77;;;;;;;20.27;nan;-24380.81;4993850;28;20177;-68
2023/04/15 09:42:36;;;;;;;4.70;1.73;;;;;;;20.06;nan;-24375.13;4993837;28;20173;-69
2023/04/15 09:45:11;;;;;;;2.95;2.13;;;;;;;20.33;nan;-24382.34;4993856;28;20185;-68
2023/04/15 09:47:37;;;;;;;2.65;1.90;;;;;;;20.43;nan;-24385.13;4992120;28;20258;-69
2023/04/15 09:50:03;;;;;;;3.97;1.80;;;;;;;20.71;nan;-24393.03;4993915;28;20180;-66
2023/04/15 09:52:29;;;;;;;3.67;1.92;;;;;;;20.24;nan;-24380.13;4993560;28;20177;-68
2023/04/15 09:54:56;;;;;;;2.53;1.77;;;;;;;20.55;nan;-24388.47;4993400;28;20614;-67
2023/04/15 09:57:23;;;;;;;2.70;1.90;;;;;;;20.53;nan;-24388.03;4993505;28;20644;-69
2023/04/15 09:59:49;;;;;;;3.65;2.17;;;;;;;21.04;nan;-24402.06;4997968;28;20173;-69
2023/04/15 10:02:15;;;;;;;3.58;2.00;;;;;;;20.72;nan;-24393.19;4993821;28;20619;-69
2023/04/15 10:04:41;;;;;;;2.60;1.95;;;;;;;20.33;nan;-24382.34;4977150;28;20662;-70
2023/04/15 10:07:08;;;;;;;3.83;1.88;;;;;;;20.36;nan;-24383.31;4973664;28;20169;-68
2023/04/15 10:09:35;;;;;;;3.33;1.90;;;;;;;20.44;nan;-24385.53;4973817;28;20177;-68
2023/04/15 10:12:03;;;;;;;3.17;1.80;;;;;;;19.84;nan;-24369.00;4973210;28;20169;-69
2023/04/15 10:14:33;;;;;;;1.92;1.63;;;;;;;20.15;nan;-24377.47;4973694;28;20692;-68
2023/04/15 10:17:00;;;;;;;2.15;1.70;;;;;;;20.11;nan;-24376.50;4973492;28;20701;-68
2023/04/15 10:19:26;;;;;;;2.72;1.80;;;;;;;19.33;nan;-24354.97;4973326;28;20174;-67
2023/04/15 10:21:53;;;;;;;1.50;1.30;;;;;;;19.32;nan;-24354.69;4972268;28;20231;-67
2023/04/15 10:24:19;;;;;;;2.65;1.63;;;;;;;19.63;nan;-24363.31;4973181;28;20179;-67
2023/04/15 10:26:45;;;;;;;4.68;1.60;;;;;;;19.65;nan;-24363.88;4974142;28;20177;-69
2023/04/15 10:29:11;;;;;;;3.17;1.80;;;;;;;20.41;nan;-24384.72;4974070;28;20237;-69
2023/04/15 10:31:38;;;;;;;1.67;1.48;;;;;;;20.80;nan;-24395.41;4973410;28;20240;-68
2023/04/15 10:34:05;;;;;;;1.60;1.40;;;;;;;20.74;nan;-24393.72;4973747;28;20774;-66
2023/04/15 10:36:32;;;;;;;5.70;1.67;;;;;;;20.58;nan;-24389.28;4973386;28;20224;-69
2023/04/15 10:38:57;;;;;;;1.85;1.60;;;;;;;21.08;nan;-24403.03;4972831;28;20252;-69
2023/04/15 10:41:29;;;;;;;2.33;1.70;;;;;;;21.54;nan;-24415.66;4973681;28;20321;-68
2023/04/15 10:44:03;;;;;;;2.00;1.52;;;;;;;21.69;nan;-24419.78;4973807;28;20596;-68
2023/04/15 10:46:37;;;;;;;3.45;1.90;;;;;;;21.76;nan;-24421.75;4973128;28;20627;-67
2023/04/15 10:49:11;;;;;;;3.42;1.83;;;;;;;21.61;nan;-24417.59;4973455;28;20169;-69
2023/04/15 10:51:42;;;;;;;3.97;1.60;;;;;;;21.00;nan;-24400.81;4971688;28;20185;-69
2023/04/15 10:54:31;;;;;;;2.70;1.90;;;;;;;21.14;nan;-24404.84;4973856;28;20205;-70
2023/04/15 10:57:02;;;;;;;4.13;2.17;;;;;;;21.43;nan;-24412.59;4973191;28;20185;-67
2023/04/15 10:59:29;;;;;;;5.32;2.40;;;;;;;21.48;nan;-24413.97;4978352;28;20184;-67
2023/04/15 11:01:59;;;;;;;3.92;2.60;;;;;;;21.06;nan;-24402.59;4972835;28;20177;-69
2023/04/15 11:04:50;;;;;;;3.63;2.38;;;;;;;21.04;nan;-24401.91;4973234;28;20629;-69
2023/04/15 11:07:38;;;;;;;3.42;2.30;;;;;;;20.58;nan;-24389.28;4968258;28;20185;-69
2023/04/15 11:10:12;;;;;;;4.50;2.60;;;;;;;20.01;nan;-24373.59;4972903;28;20177;-69
2023/04/15 11:12:39;;;;;;;4.18;2.55;;;;;;;19.48;nan;-24359.00;4973091;28;20207;-68
2023/04/15 11:15:31;;;;;;;4.43;2.53;;;;;;;19.58;nan;-24361.78;4973344;28;20172;-69
2023/04/15 11:18:18;;;;;;;4.18;2.60;;;;;;;19.75;nan;-24366.66;4973172;28;20673;-69
2023/04/15 11:20:49;;;;;;;3.90;2.47;;;;;;;19.84;nan;-24369.16;4972460;28;20696;-68
2023/04/15 11:23:18;;;;;;;3.00;2.17;;;;;;;19.88;nan;-24370.13;4973297;28;20216;-69
2023/04/15 11:25:43;;;;;;;3.38;2.42;;;;;;;19.92;nan;-24371.22;4973172;28;20192;-69
2023/04/15 11:28:10;;;;;;;4.57;2.30;;;;;;;20.04;nan;-24374.56;4972883;28;20169;-68
2023/04/15 11:30:36;;;;;;;3.30;2.33;;;;;;;20.28;nan;-24381.22;4973073;28;20190;-67
2023/04/15 11:33:07;;;;;;;4.28;2.60;;;;;;;20.21;nan;-24379.28;4972637;28;20209;-68
2023/04/15 11:35:33;;;;;;;3.10;2.35;;;;;;;20.05;nan;-24374.84;4973164;28;20181;-66
2023/04/15 11:38:02;;;;;;;5.75;2.60;;;;;;;20.09;nan;-24375.97;4973194;28;20309;-67
2023/04/15 11:40:30;;;;;;;5.00;2.58;;;;;;;20.05;nan;-24374.72;4972774;28;20177;-70